Etusivu
METAR-TAF:

METAR-TAF

Lentoasemat :

Dumas, Texas, Yhdysvallat

Leveyspiiri: 35-51-28N, Pituuspiiri: 102-00-47W, korkeus merenpinnasta: 1129 m

Tämänhetkinen sää

Tämä raportti tehtiin 33 minuuttia sitten, kello 01.55 UTC
Tuuli 17 kn lännestä puuskistuen 24 kn:hen
Lämpötila 10°C
Kosteus 100%
Ilmanpaine 1012 hPa
Näkyvyys: 8.0 km
Hajanaisia pilviä 500 ft:n korkeudessa
Hajanaisia pilviä 1000 ft:n korkeudessa
Hajonneita pilviä 1500 ft:n korkeudessa
sadetta

METAR: KDUX 180155Z AUTO 28017G24KT 5SM RA SCT005 SCT010 BKN015 10/10 A2989 RMK AO2 P0029 T01030098

Aika: 21:28 (02:28 UTC)


TAF: puuttuu

Säähavainnot ja -ennusteet yli 4000 lentoasemalta (METAR- ja TAF-raportit).

Käytössä olevat sääasemat on merkitty karttaan keltaisilla ja punaisilla pisteillä.

Aseta hiiri pisteen päälle nähdäksesi sääaseman nimen.

Klikkaa sitten nähdäksesi säähavainnot ja -ennusteet.

Kartan vaihtaminen: klikkaa mustalla rastilla varustettuja vihreitä pisteitä, niin voit zoomata sisään; viivalla varustettua vihreää pistettä, niin voit zoomata ulos tai vihreitä nuolia, niin pääset viereisille kartoille.


METAR-TAF: